Observation data for Slaton on 01/18/2019      Previous  Date  Next       Current Mesonet Observations  Soil Data  Daily Summary Page  Observations in Plain Language
KSLS 180600Z 21013KT 07/M00 A3002 RMK A01 T00681004  RH  061%=      5-min Rain = 0
KSLS 180605Z 21015KT 07/M00 A3002 RMK A01 T00681003  RH  061%=      5-min Rain = 0
KSLS 180610Z 21014KT 07/M00 A3002 RMK A01 T00721002  RH  060%=      5-min Rain = 0
KSLS 180615Z 21014KT 07/M00 A3002 RMK A01 T00731002  RH  060%=      5-min Rain = 0
KSLS 180620Z 21014KT 07/M00 A3001 RMK A01 T00711002  RH  060%=      5-min Rain = 0
KSLS 180625Z 21015KT 07/M00 A3001 RMK A01 T00701002  RH  061%=      5-min Rain = 0
KSLS 180630Z 21015KT 07/M00 A3001 RMK A01 T00731001  RH  060%=      5-min Rain = 0
KSLS 180635Z 21015KT 08/00 A3001 RMK A01 T007600-0  RH  059%=      5-min Rain = 0
KSLS 180640Z 21014KT 08/00 A3001 RMK A01 T007900-0  RH  058%=      5-min Rain = 0
KSLS 180645Z 21014KT 08/00 A30 RMK A01 T007900-0  RH  058%=      5-min Rain = 0
KSLS 180650Z 20014KT 08/00 A30 RMK A01 T008000-0  RH  057%=      5-min Rain = 0
KSLS 180655Z 20014KT 08/M00 A30 RMK A01 T00791001  RH  058%=      5-min Rain = 0
KSLS 180700Z 20014KT 08/M00 A30 RMK A01 T00811001  RH  057%=      5-min Rain = 0
KSLS 180705Z 20014KT 08/M00 A2999 RMK A01 T00801001  RH  057%=      5-min Rain = 0
KSLS 180710Z 21013KT 08/00 A2999 RMK A01 T008000-0  RH  057%=      5-min Rain = 0
KSLS 180715Z 21013KT 08/00 A2999 RMK A01 T00790000  RH  058%=      5-min Rain = 0
KSLS 180720Z 21014KT 08/00 A2999 RMK A01 T00800000  RH  058%=      5-min Rain = 0
KSLS 180725Z 21014KT 08/00 A2998 RMK A01 T00810000  RH  057%=      5-min Rain = 0
KSLS 180730Z 21015KT 08/00 A2998 RMK A01 T00810001  RH  057%=      5-min Rain = 0
KSLS 180735Z 21014KT 08/00 A2998 RMK A01 T00790002  RH  059%=      5-min Rain = 0
KSLS 180740Z 21014KT 08/00 A2997 RMK A01 T00790003  RH  059%=      5-min Rain = 0
KSLS 180745Z 21014KT 08/00 A2997 RMK A01 T00780004  RH  060%=      5-min Rain = 0
KSLS 180750Z 21014KT 08/01 A2997 RMK A01 T00790005  RH  060%=      5-min Rain = 0
KSLS 180755Z 21014KT 08/01 A2997 RMK A01 T00790006  RH  061%=      5-min Rain = 0
KSLS 180800Z 21013KT 08/01 A2997 RMK A01 T00770007  RH  062%=      5-min Rain = 0
KSLS 180805Z 21013KT 08/01 A2997 RMK A01 T00760007  RH  062%=      5-min Rain = 0
KSLS 180810Z 21013KT 07/01 A2996 RMK A01 T00740006  RH  063%=      5-min Rain = 0
KSLS 180815Z 21014KT 07/01 A2996 RMK A01 T00720006  RH  064%=      5-min Rain = 0
KSLS 180820Z 21013KT 07/01 A2996 RMK A01 T00700007  RH  065%=      5-min Rain = 0
KSLS 180825Z 20013KT 07/01 A2996 RMK A01 T00670006  RH  066%=      5-min Rain = 0
KSLS 180830Z 21013KT 07/01 A2996 RMK A01 T00660006  RH  066%=      5-min Rain = 0
KSLS 180835Z 21013KT 06/01 A2996 RMK A01 T00640006  RH  067%=      5-min Rain = 0
KSLS 180840Z 20012KT 06/01 A2995 RMK A01 T00620006  RH  068%=      5-min Rain = 0
KSLS 180845Z 21013KT 06/01 A2995 RMK A01 T00620006  RH  068%=      5-min Rain = 0
KSLS 180850Z 21013KT 06/01 A2995 RMK A01 T00610007  RH  069%=      5-min Rain = 0
KSLS 180855Z 21015KT 07/01 A2994 RMK A01 T00660010  RH  068%=      5-min Rain = 0
KSLS 180900Z 21015KT 07/01 A2994 RMK A01 T00690012  RH  068%=      5-min Rain = 0
KSLS 180905Z 21014KT 07/01 A2994 RMK A01 T00690012  RH  068%=      5-min Rain = 0
KSLS 180910Z 21013KT 07/01 A2994 RMK A01 T00680012  RH  068%=      5-min Rain = 0
KSLS 180915Z 22012KT 07/01 A2994 RMK A01 T00660012  RH  069%=      5-min Rain = 0
KSLS 180920Z 22012KT 06/01 A2994 RMK A01 T00640011  RH  070%=      5-min Rain = 0
KSLS 180925Z 22012KT 06/01 A2994 RMK A01 T00630011  RH  070%=      5-min Rain = 0
KSLS 180930Z 21012KT 06/01 A2993 RMK A01 T00610010  RH  070%=      5-min Rain = 0
KSLS 180935Z 21013KT 06/01 A2993 RMK A01 T00610010  RH  071%=      5-min Rain = 0
KSLS 180940Z 21012KT 06/01 A2992 RMK A01 T00600009  RH  071%=      5-min Rain = 0
KSLS 180945Z 22010KT 06/01 A2992 RMK A01 T00560008  RH  072%=      5-min Rain = 0
KSLS 180950Z 22011KT 06/01 A2992 RMK A01 T00550008  RH  073%=      5-min Rain = 0
KSLS 180955Z 22011KT 05/01 A2992 RMK A01 T00530008  RH  073%=      5-min Rain = 0
KSLS 181000Z 22010KT 05/01 A2992 RMK A01 T00520007  RH  074%=      5-min Rain = 0
KSLS 181005Z 23011KT 05/01 A2992 RMK A01 T00520007  RH  074%=      5-min Rain = 0
KSLS 181010Z 23011KT 05/01 A2992 RMK A01 T00510007  RH  074%=      5-min Rain = 0
KSLS 181015Z 23009KT 05/01 A2992 RMK A01 T00490006  RH  075%=      5-min Rain = 0
KSLS 181020Z 23011KT 05/01 A2992 RMK A01 T00500007  RH  075%=      5-min Rain = 0
KSLS 181025Z 22012KT 05/01 A2991 RMK A01 T00510007  RH  074%=      5-min Rain = 0
KSLS 181030Z 23011KT 05/01 A2991 RMK A01 T00490007  RH  075%=      5-min Rain = 0
KSLS 181035Z 23010KT 05/01 A2991 RMK A01 T00480006  RH  075%=      5-min Rain = 0
KSLS 181040Z 23010KT 05/01 A2991 RMK A01 T00470005  RH  075%=      5-min Rain = 0
KSLS 181045Z 22012KT 05/01 A299 RMK A01 T00470005  RH  075%=      5-min Rain = 0
KSLS 181050Z 23011KT 05/01 A299 RMK A01 T00480005  RH  075%=      5-min Rain = 0
KSLS 181055Z 23010KT 05/00 A299 RMK A01 T00450004  RH  075%=      5-min Rain = 0
KSLS 181100Z 24011KT 05/00 A299 RMK A01 T00450003  RH  075%=      5-min Rain = 0
KSLS 181105Z 23011KT 04/00 A299 RMK A01 T00430002  RH  076%=      5-min Rain = 0
KSLS 181110Z 22011KT 04/00 A2989 RMK A01 T00410002  RH  076%=      5-min Rain = 0
KSLS 181115Z 22011KT 04/00 A2989 RMK A01 T00410002  RH  076%=      5-min Rain = 0
KSLS 181120Z 22011KT 04/00 A2988 RMK A01 T00410002  RH  076%=      5-min Rain = 0
KSLS 181125Z 22011KT 04/00 A2988 RMK A01 T00400001  RH  077%=      5-min Rain = 0
KSLS 181130Z 23011KT 04/00 A2988 RMK A01 T00400001  RH  076%=      5-min Rain = 0
KSLS 181135Z 22011KT 04/00 A2987 RMK A01 T00400000  RH  076%=      5-min Rain = 0
KSLS 181140Z 22011KT 04/00 A2987 RMK A01 T00400001  RH  076%=      5-min Rain = 0
KSLS 181145Z 22013KT 04/00 A2986 RMK A01 T00410001  RH  076%=      5-min Rain = 0
KSLS 181150Z 22012KT 04/00 A2986 RMK A01 T00410001  RH  076%=      5-min Rain = 0
KSLS 181155Z 22012KT 04/00 A2986 RMK A01 T00410001  RH  076%=      5-min Rain = 0
KSLS 181200Z 22013KT 04/00 A2986 RMK A01 T00420001  RH  076%=      5-min Rain = 0
KSLS 181205Z 22013KT 04/00 A2986 RMK A01 T00420001  RH  076%=      5-min Rain = 0
KSLS 181210Z 23012KT 04/00 A2986 RMK A01 T00410001  RH  076%=      5-min Rain = 0
KSLS 181215Z 23012KT 04/00 A2985 RMK A01 T00420001  RH  076%=      5-min Rain = 0
KSLS 181220Z 23011KT 04/00 A2985 RMK A01 T00420001  RH  075%=      5-min Rain = 0
KSLS 181225Z 23012KT 05/00 A2985 RMK A01 T00450002  RH  074%=      5-min Rain = 0
KSLS 181230Z 23013KT 05/00 A2985 RMK A01 T00460002  RH  074%=      5-min Rain = 0
KSLS 181235Z 23011KT 05/00 A2984 RMK A01 T00470002  RH  073%=      5-min Rain = 0
KSLS 181240Z 23011KT 05/00 A2984 RMK A01 T00490003  RH  073%=      5-min Rain = 0
KSLS 181245Z 24013KT 05/00 A2985 RMK A01 T00530004  RH  071%=      5-min Rain = 0
KSLS 181250Z 24013KT 05/00 A2985 RMK A01 T00510003  RH  072%=      5-min Rain = 0
KSLS 181255Z 23014KT 05/01 A2984 RMK A01 T00530005  RH  072%=      5-min Rain = 0
KSLS 181300Z 23014KT 05/01 A2984 RMK A01 T00540005  RH  071%=      5-min Rain = 0
KSLS 181305Z 23014KT 06/01 A2984 RMK A01 T00550005  RH  071%=      5-min Rain = 0
KSLS 181310Z 24014KT 06/01 A2984 RMK A01 T00570005  RH  070%=      5-min Rain = 0
KSLS 181315Z 24014G19KT 06/01 A2985 RMK A01 T00570005  RH  070%=      5-min Rain = 0
KSLS 181320Z 24012KT 06/01 A2985 RMK A01 T00560005  RH  071%=      5-min Rain = 0
KSLS 181325Z 24013KT 06/01 A2985 RMK A01 T00560005  RH  071%=      5-min Rain = 0
KSLS 181330Z 23013KT 06/01 A2984 RMK A01 T00570006  RH  070%=      5-min Rain = 0
KSLS 181335Z 23013KT 06/01 A2984 RMK A01 T00600007  RH  070%=      5-min Rain = 0
KSLS 181340Z 24013KT 06/01 A2984 RMK A01 T00620007  RH  069%=      5-min Rain = 0
KSLS 181345Z 23015KT 06/01 A2984 RMK A01 T00640008  RH  068%=      5-min Rain = 0
KSLS 181350Z 23015KT 07/01 A2984 RMK A01 T00660007  RH  067%=      5-min Rain = 0
KSLS 181355Z 23015KT 07/01 A2984 RMK A01 T00660007  RH  067%=      5-min Rain = 0
KSLS 181400Z 24014KT 07/01 A2984 RMK A01 T00650007  RH  067%=      5-min Rain = 0
KSLS 181405Z 24014KT 07/01 A2984 RMK A01 T00660008  RH  067%=      5-min Rain = 0
KSLS 181410Z 24014KT 07/01 A2984 RMK A01 T00700009  RH  066%=      5-min Rain = 0
KSLS 181415Z 24013KT 07/01 A2983 RMK A01 T00720009  RH  065%=      5-min Rain = 0
KSLS 181420Z 24014KT 07/01 A2983 RMK A01 T00740009  RH  064%=      5-min Rain = 0
KSLS 181425Z 24014KT 08/01 A2983 RMK A01 T00750009  RH  063%=      5-min Rain = 0
KSLS 181430Z 24014KT 08/01 A2983 RMK A01 T00760009  RH  063%=      5-min Rain = 0
KSLS 181435Z 23015KT 08/01 A2982 RMK A01 T00790009  RH  062%=      5-min Rain = 0
KSLS 181440Z 23015KT 08/01 A2982 RMK A01 T00800009  RH  061%=      5-min Rain = 0
KSLS 181445Z 23015KT 08/01 A2982 RMK A01 T00820009  RH  061%=      5-min Rain = 0
KSLS 181450Z 23015KT 08/01 A2982 RMK A01 T00830009  RH  060%=      5-min Rain = 0
KSLS 181455Z 23015KT 08/01 A2982 RMK A01 T00830010  RH  061%=      5-min Rain = 0
KSLS 181500Z 23015KT 08/01 A2982 RMK A01 T00830011  RH  061%=      5-min Rain = 0
KSLS 181505Z 23015KT 08/01 A2982 RMK A01 T00830011  RH  061%=      5-min Rain = 0
KSLS 181510Z 23016KT 08/01 A2982 RMK A01 T00830011  RH  061%=      5-min Rain = 0
KSLS 181515Z 22016KT 09/01 A2982 RMK A01 T00870013  RH  060%=      5-min Rain = 0
KSLS 181520Z 23016KT 09/01 A2982 RMK A01 T00910014  RH  059%=      5-min Rain = 0
KSLS 181525Z 23016KT 10/02 A2982 RMK A01 T00960015  RH  058%=      5-min Rain = 0
KSLS 181530Z 23014G19KT 10/02 A2982 RMK A01 T01010017  RH  057%=      5-min Rain = 0
KSLS 181535Z 23014KT 11/02 A2982 RMK A01 T01050018  RH  055%=      5-min Rain = 0
KSLS 181540Z 22014KT 11/02 A2982 RMK A01 T01070018  RH  055%=      5-min Rain = 0
KSLS 181545Z 23015KT 11/02 A2982 RMK A01 T01120020  RH  054%=      5-min Rain = 0
KSLS 181550Z 23014G20KT 12/02 A2982 RMK A01 T01180022  RH  052%=      5-min Rain = 0
KSLS 181555Z 23014G20KT 12/02 A2982 RMK A01 T01210020  RH  050%=      5-min Rain = 0
KSLS 181600Z 23014KT 12/02 A2981 RMK A01 T01240021  RH  050%=      5-min Rain = 0
KSLS 181605Z 24014G20KT 13/02 A2981 RMK A01 T01280020  RH  048%=      5-min Rain = 0
KSLS 181610Z 25016G21KT 13/02 A2981 RMK A01 T01290017  RH  047%=      5-min Rain = 0
KSLS 181615Z 24017KT 13/02 A2981 RMK A01 T01280016  RH  047%=      5-min Rain = 0
KSLS 181620Z 24016KT 13/02 A2981 RMK A01 T01290019  RH  048%=      5-min Rain = 0
KSLS 181625Z 24017G22KT 13/02 A298 RMK A01 T01300018  RH  047%=      5-min Rain = 0
KSLS 181630Z 24016G21KT 13/02 A2981 RMK A01 T01340020  RH  047%=      5-min Rain = 0
KSLS 181635Z 24018G26KT 14/02 A2981 RMK A01 T01390019  RH  045%=      5-min Rain = 0
KSLS 181640Z 24016G22KT 14/02 A298 RMK A01 T01400019  RH  044%=      5-min Rain = 0
KSLS 181645Z 25017G22KT 14/02 A298 RMK A01 T01430018  RH  043%=      5-min Rain = 0
KSLS 181650Z 24017G22KT 14/02 A298 RMK A01 T01440018  RH  043%=      5-min Rain = 0
KSLS 181655Z 24017KT 15/02 A298 RMK A01 T01490021  RH  042%=      5-min Rain = 0
KSLS 181700Z 24018G25KT 16/02 A298 RMK A01 T01560020  RH  041%=      5-min Rain = 0
KSLS 181705Z 24020G27KT 16/02 A2979 RMK A01 T01600017  RH  038%=      5-min Rain = 0
KSLS 181710Z 24019G26KT 16/02 A2979 RMK A01 T01610018  RH  039%=      5-min Rain = 0
KSLS 181715Z 25019G25KT 17/02 A2979 RMK A01 T01690018  RH  036%=      5-min Rain = 0
KSLS 181720Z 25022G28KT 17/01 A2978 RMK A01 T01730014  RH  035%=      5-min Rain = 0
KSLS 181725Z 25021G26KT 18/02 A2978 RMK A01 T01770015  RH  034%=      5-min Rain = 0
KSLS 181730Z 24021G28KT 18/01 A2978 RMK A01 T01820013  RH  032%=      5-min Rain = 0
KSLS 181735Z 25023G28KT 19/01 A2977 RMK A01 T01880009  RH  031%=      5-min Rain = 0
KSLS 181740Z 26020G28KT 19/01 A2977 RMK A01 T01930009  RH  029%=      5-min Rain = 0
KSLS 181745Z 26020G27KT 19/00 A2977 RMK A01 T01920004  RH  029%=      5-min Rain = 0
KSLS 181750Z 27021G28KT 19/00 A2977 RMK A01 T01930004  RH  028%=      5-min Rain = 0
KSLS 181755Z 26022G29KT 19/00 A2977 RMK A01 T01940003  RH  028%=      5-min Rain = 0
KSLS 181800Z 26022G28KT 19/00 A2976 RMK A01 T019200-0  RH  028%=      5-min Rain = 0
KSLS 181805Z 26023G29KT 20/00 A2976 RMK A01 T01970002  RH  027%=      5-min Rain = 0
KSLS 181810Z 26022G30KT 20/00 A2975 RMK A01 T02030003  RH  027%=      5-min Rain = 0
KSLS 181815Z 26023KT 20/M00 A2975 RMK A01 T01981002  RH  026%=      5-min Rain = 0
KSLS 181820Z 26020G28KT 20/00 A2975 RMK A01 T01980001  RH  027%=      5-min Rain = 0
KSLS 181825Z 27020G30KT 20/00 A2975 RMK A01 T019600-0  RH  027%=      5-min Rain = 0
KSLS 181830Z 27020G27KT 19/M00 A2974 RMK A01 T01931002  RH  027%=      5-min Rain = 0
KSLS 181835Z 27019G31KT 19/M00 A2974 RMK A01 T01911001  RH  028%=      5-min Rain = 0
KSLS 181840Z 27024G33KT 19/M00 A2973 RMK A01 T01931002  RH  027%=      5-min Rain = 0
KSLS 181845Z 27021G28KT 19/00 A2973 RMK A01 T019400-0  RH  027%=      5-min Rain = 0
KSLS 181850Z 27018G26KT 19/00 A2973 RMK A01 T01940001  RH  028%=      5-min Rain = 0
KSLS 181855Z 26022G29KT 20/00 A2972 RMK A01 T01980003  RH  027%=      5-min Rain = 0
KSLS 181900Z 27023G31KT 19/00 A2972 RMK A01 T01940001  RH  028%=      5-min Rain = 0
KSLS 181905Z 27022G31KT 20/00 A2971 RMK A01 T01980004  RH  027%=      5-min Rain = 0
KSLS 181910Z 27022G31KT 20/00 A2971 RMK A01 T01950003  RH  028%=      5-min Rain = 0
KSLS 181915Z 26024G33KT 19/00 A297 RMK A01 T01930001  RH  028%=      5-min Rain = 0
KSLS 181920Z 26025G31KT 19/00 A297 RMK A01 T01890001  RH  028%=      5-min Rain = 0
KSLS 181925Z 26025G30KT 19/00 A297 RMK A01 T01890001  RH  028%=      5-min Rain = 0
KSLS 181930Z 26025G34KT 19/00 A297 RMK A01 T01890001  RH  028%=      5-min Rain = 0
KSLS 181935Z 26027G35KT 19/00 A2969 RMK A01 T01920001  RH  028%=      5-min Rain = 0
KSLS 181940Z 26025G35KT 20/00 A2969 RMK A01 T01970003  RH  028%=      5-min Rain = 0
KSLS 181945Z 26025G31KT 20/00 A2968 RMK A01 T01990002  RH  027%=      5-min Rain = 0
KSLS 181950Z 26027G36KT 20/00 A2968 RMK A01 T02010002  RH  027%=      5-min Rain = 0
KSLS 181955Z 26026G37KT 20/00 A2968 RMK A01 T01970002  RH  027%=      5-min Rain = 0
KSLS 182000Z 26022G29KT 20/00 A2967 RMK A01 T02020004  RH  027%=      5-min Rain = 0
KSLS 182005Z 26023G32KT 20/00 A2967 RMK A01 T02020003  RH  027%=      5-min Rain = 0
KSLS 182010Z 26025G34KT 20/M00 A2967 RMK A01 T01961003  RH  026%=      5-min Rain = 0
KSLS 182015Z 26025G35KT 19/M01 A2967 RMK A01 T01921005  RH  027%=      5-min Rain = 0
KSLS 182020Z 27028G35KT 19/M01 A2967 RMK A01 T01881006  RH  027%=      5-min Rain = 0
KSLS 182025Z 26028G37KT 19/M00 A2967 RMK A01 T01931004  RH  027%=      5-min Rain = 0
KSLS 182030Z 26022G31KT 20/M00 A2967 RMK A01 T01981002  RH  026%=      5-min Rain = 0
KSLS 182035Z 26028G37KT 20/M00 A2967 RMK A01 T01971004  RH  026%=      5-min Rain = 0
KSLS 182040Z 26025G33KT 20/M01 A2966 RMK A01 T01951009  RH  026%=      5-min Rain = 0
KSLS 182045Z 26024G33KT 19/M01 A2966 RMK A01 T01901006  RH  027%=      5-min Rain = 0
KSLS 182050Z 26024G35KT 19/M01 A2966 RMK A01 T01881005  RH  028%=      5-min Rain = 0
KSLS 182055Z 25024G34KT 19/M01 A2966 RMK A01 T01891005  RH  027%=      5-min Rain = 0
KSLS 182100Z 25025G34KT 19/M00 A2966 RMK A01 T01931003  RH  027%=      5-min Rain = 0
KSLS 182105Z 26023G30KT 20/00 A2966 RMK A01 T019700-0  RH  027%=      5-min Rain = 0
KSLS 182110Z 28024G33KT 20/M00 A2966 RMK A01 T01991002  RH  026%=      5-min Rain = 0
KSLS 182115Z 28025G39KT 20/M01 A2966 RMK A01 T01951005  RH  026%=      5-min Rain = 0
KSLS 182120Z 27024G35KT 20/00 A2967 RMK A01 T01950003  RH  028%=      5-min Rain = 0
KSLS 182125Z 27027G34KT 19/00 A2967 RMK A01 T01890003  RH  029%=      5-min Rain = 0
KSLS 182130Z 27025G36KT 18/01 A2967 RMK A01 T01830005  RH  030%=      5-min Rain = 0
KSLS 182135Z 27024G34KT 18/01 A2967 RMK A01 T01820007  RH  031%=      5-min Rain = 0
KSLS 182140Z 27025G32KT 18/01 A2967 RMK A01 T01800008  RH  032%=      5-min Rain = 0
KSLS 182145Z 28027G35KT 18/00 A2967 RMK A01 T01800001  RH  030%=      5-min Rain = 0
KSLS 182150Z 28029G38KT 18/00 A2967 RMK A01 T01780003  RH  031%=      5-min Rain = 0
KSLS 182155Z 27026G35KT 18/01 A2967 RMK A01 T01760005  RH  032%=      5-min Rain = 0
KSLS 182200Z 27024G31KT 17/00 A2967 RMK A01 T01730003  RH  032%=      5-min Rain = 0
KSLS 182205Z 27024G34KT 17/00 A2967 RMK A01 T01710002  RH  032%=      5-min Rain = 0
KSLS 182210Z 26020G29KT 17/00 A2967 RMK A01 T01700001  RH  032%=      5-min Rain = 0
KSLS 182215Z 26020G26KT 17/00 A2967 RMK A01 T01680000  RH  032%=      5-min Rain = 0
KSLS 182220Z 26023G32KT 17/00 A2967 RMK A01 T01690001  RH  032%=      5-min Rain = 0
KSLS 182225Z 27025G34KT 17/00 A2968 RMK A01 T01710001  RH  032%=      5-min Rain = 0
KSLS 182230Z 27025G33KT 17/M00 A2968 RMK A01 T01691001  RH  032%=      5-min Rain = 0
KSLS 182235Z 27024G34KT 17/M01 A2969 RMK A01 T01701005  RH  031%=      5-min Rain = 0
KSLS 182240Z 27020G28KT 17/M01 A2969 RMK A01 T01691012  RH  029%=      5-min Rain = 0
KSLS 182245Z 27020G27KT 17/M02 A2969 RMK A01 T01671020  RH  028%=      5-min Rain = 0
KSLS 182250Z 27021G27KT 17/M03 A2969 RMK A01 T01651030  RH  026%=      5-min Rain = 0
KSLS 182255Z 26019G26KT 16/M03 A297 RMK A01 T01631029  RH  027%=      5-min Rain = 0
KSLS 182300Z 26020G28KT 16/M03 A297 RMK A01 T01631029  RH  027%=      5-min Rain = 0
KSLS 182305Z 26020G25KT 16/M03 A2969 RMK A01 T01611028  RH  028%=      5-min Rain = 0
KSLS 182310Z 25021G27KT 16/M03 A2969 RMK A01 T01591031  RH  027%=      5-min Rain = 0
KSLS 182315Z 25023G31KT 16/M03 A2969 RMK A01 T01581034  RH  027%=      5-min Rain = 0
KSLS 182320Z 26021G29KT 16/M04 A2969 RMK A01 T01561042  RH  025%=      5-min Rain = 0
KSLS 182325Z 26019G24KT 16/M05 A2969 RMK A01 T01561045  RH  025%=      5-min Rain = 0
KSLS 182330Z 26016G23KT 15/M05 A2968 RMK A01 T01521046  RH  025%=      5-min Rain = 0
KSLS 182335Z 25016G22KT 15/M05 A2968 RMK A01 T01481046  RH  026%=      5-min Rain = 0
KSLS 182340Z 25015G20KT 15/M05 A2968 RMK A01 T01481046  RH  026%=      5-min Rain = 0
KSLS 182345Z 25013KT 15/M05 A2967 RMK A01 T01461045  RH  027%=      5-min Rain = 0
KSLS 182350Z 25013G18KT 14/M05 A2968 RMK A01 T01431045  RH  027%=      5-min Rain = 0
KSLS 182355Z 25014KT 14/M04 A2968 RMK A01 T01411044  RH  028%=      5-min Rain = 0
KSLS 190000Z 25015KT 14/M05 A2969 RMK A01 T01411045  RH  028%=      5-min Rain = 0
KSLS 190005Z 25014KT 14/M05 A2969 RMK A01 T01381045  RH  028%=      5-min Rain = 0
KSLS 190010Z 25015G20KT 14/M05 A2969 RMK A01 T01381047  RH  028%=      5-min Rain = 0
KSLS 190015Z 26017G23KT 14/M05 A297 RMK A01 T01381050  RH  027%=      5-min Rain = 0
KSLS 190020Z 27014G20KT 14/M05 A297 RMK A01 T01361050  RH  027%=      5-min Rain = 0
KSLS 190025Z 26012G17KT 13/M05 A297 RMK A01 T01331051  RH  028%=      5-min Rain = 0
KSLS 190030Z 27016G22KT 13/M06 A2971 RMK A01 T01341057  RH  026%=      5-min Rain = 0
KSLS 190035Z 27017G27KT 14/M06 A2971 RMK A01 T01371063  RH  025%=      5-min Rain = 0
KSLS 190040Z 27019G27KT 14/M07 A2971 RMK A01 T01381065  RH  024%=      5-min Rain = 0
KSLS 190045Z 28017G22KT 14/M06 A2971 RMK A01 T01351064  RH  025%=      5-min Rain = 0
KSLS 190050Z 28018G25KT 14/M06 A2971 RMK A01 T01351064  RH  025%=      5-min Rain = 0
KSLS 190055Z 27017G24KT 13/M06 A2971 RMK A01 T01331063  RH  025%=      5-min Rain = 0
KSLS 190100Z 27018G26KT 13/M06 A2971 RMK A01 T01321062  RH  026%=      5-min Rain = 0
KSLS 190105Z 27017G23KT 13/M06 A2971 RMK A01 T01321060  RH  026%=      5-min Rain = 0
KSLS 190110Z 26017G23KT 13/M06 A2971 RMK A01 T01311060  RH  026%=      5-min Rain = 0
KSLS 190115Z 26018KT 13/M06 A2971 RMK A01 T01301061  RH  026%=      5-min Rain = 0
KSLS 190120Z 26017G22KT 13/M06 A2971 RMK A01 T01291062  RH  026%=      5-min Rain = 0
KSLS 190125Z 26020G27KT 13/M06 A2971 RMK A01 T01291061  RH  027%=      5-min Rain = 0
KSLS 190130Z 29022G32KT 13/M05 A2972 RMK A01 T01291052  RH  028%=      5-min Rain = 0
KSLS 190135Z 33033G44KT 11/M02 A2974 RMK A01 T01131020  RH  040%=      5-min Rain = 0
KSLS 190140Z 34022G32KT 10/M01 A2976 RMK A01 T00961009  RH  048%=      5-min Rain = 0
KSLS 190145Z 35023G32KT 09/M01 A2977 RMK A01 T00881008  RH  051%=      5-min Rain = 0
KSLS 190150Z 35028G37KT 08/M01 A2978 RMK A01 T00821006  RH  054%=      5-min Rain = 0
KSLS 190155Z 34025G35KT 08/M01 A298 RMK A01 T00771005  RH  057%=      5-min Rain = 0
KSLS 190200Z 34023G37KT 07/M00 A298 RMK A01 T00731004  RH  058%=      5-min Rain = 0
KSLS 190205Z 34024G37KT 07/M00 A2981 RMK A01 T00711004  RH  059%=      5-min Rain = 0
KSLS 190210Z 34022G30KT 07/M00 A2982 RMK A01 T00691004  RH  060%=      5-min Rain = 0
KSLS 190215Z 34019G28KT 07/M00 A2982 RMK A01 T00681003  RH  061%=      5-min Rain = 0
KSLS 190220Z 34025G34KT 07/00 A2982 RMK A01 T00680001  RH  063%=      5-min Rain = 0
KSLS 190225Z 34022G32KT 07/00 A2982 RMK A01 T00680003  RH  064%=      5-min Rain = 0
KSLS 190230Z 34027G41KT 07/00 A2982 RMK A01 T006600-0  RH  063%=      5-min Rain = 0
KSLS 190235Z 34030G40KT 06/M00 A2983 RMK A01 T00641002  RH  063%=      5-min Rain = 0
KSLS 190240Z 34025G34KT 06/M00 A2984 RMK A01 T00621003  RH  064%=      5-min Rain = 0
KSLS 190245Z 34025G37KT 06/M00 A2984 RMK A01 T00611003  RH  064%=      5-min Rain = 0
KSLS 190250Z 34023G33KT 06/M00 A2984 RMK A01 T00601003  RH  065%=      5-min Rain = 0
KSLS 190255Z 33024G40KT 06/M00 A2985 RMK A01 T00581003  RH  066%=      5-min Rain = 0
KSLS 190300Z 33024G35KT 06/M00 A2985 RMK A01 T00551001  RH  068%=      5-min Rain = 0
KSLS 190305Z 33026G36KT 05/M00 A2986 RMK A01 T00531002  RH  068%=      5-min Rain = 0
KSLS 190310Z 34027G39KT 05/M00 A2986 RMK A01 T00501003  RH  069%=      5-min Rain = 0
KSLS 190315Z 34026G33KT 05/M00 A2987 RMK A01 T00471004  RH  070%=      5-min Rain = 0
KSLS 190320Z 34023G33KT 04/M01 A2988 RMK A01 T00441005  RH  071%=      5-min Rain = 0
KSLS 190325Z 33025G38KT 04/M01 A2989 RMK A01 T00431007  RH  070%=      5-min Rain = 0
KSLS 190330Z 34026G39KT 04/M01 A2989 RMK A01 T00421011  RH  069%=      5-min Rain = 0
KSLS 190335Z 35026G35KT 04/M01 A299 RMK A01 T00401011  RH  070%=      5-min Rain = 0
KSLS 190340Z 35019G27KT 04/M01 A2991 RMK A01 T00401012  RH  070%=      5-min Rain = 0
KSLS 190345Z 34022G31KT 04/M01 A2991 RMK A01 T00391014  RH  069%=      5-min Rain = 0
KSLS 190350Z 33024G31KT 04/M02 A2992 RMK A01 T00391015  RH  069%=      5-min Rain = 0
KSLS 190355Z 34021G33KT 04/M02 A2992 RMK A01 T00391016  RH  068%=      5-min Rain = 0
KSLS 190400Z 34024G35KT 04/M02 A2992 RMK A01 T00371024  RH  065%=      5-min Rain = 0
KSLS 190405Z 34027G39KT 03/M03 A2993 RMK A01 T00341034  RH  062%=      5-min Rain = 0
KSLS 190410Z 34027G35KT 03/M03 A2993 RMK A01 T00331034  RH  062%=      5-min Rain = 0
KSLS 190415Z 34027G37KT 03/M03 A2994 RMK A01 T00331032  RH  063%=      5-min Rain = 0
KSLS 190420Z 34025G37KT 03/M03 A2995 RMK A01 T00341030  RH  064%=      5-min Rain = 0
KSLS 190425Z 34024G33KT 03/M03 A2995 RMK A01 T00341027  RH  065%=      5-min Rain = 0
KSLS 190430Z 34023G36KT 03/M02 A2996 RMK A01 T00341024  RH  067%=      5-min Rain = 0
KSLS 190435Z 33027G36KT 03/M02 A2996 RMK A01 T00331022  RH  068%=      5-min Rain = 0
KSLS 190440Z 34029G41KT 03/M03 A2996 RMK A01 T00321026  RH  067%=      5-min Rain = 0
KSLS 190445Z 33026G34KT 03/M03 A2997 RMK A01 T00291032  RH  065%=      5-min Rain = 0
KSLS 190450Z 34024G33KT 03/M03 A2997 RMK A01 T00281034  RH  064%=      5-min Rain = 0
KSLS 190455Z 34025G36KT 03/M03 A2998 RMK A01 T00291034  RH  064%=      5-min Rain = 0
KSLS 190500Z 34026G38KT 03/M04 A2998 RMK A01 T00291035  RH  064%=      5-min Rain = 0
KSLS 190505Z 34026G39KT 03/M03 A2999 RMK A01 T00291034  RH  064%=      5-min Rain = 0
KSLS 190510Z 34024G32KT 03/M03 A2999 RMK A01 T00281033  RH  065%=      5-min Rain = 0
KSLS 190515Z 35026G35KT 03/M03 A30 RMK A01 T00281031  RH  066%=      5-min Rain = 0
KSLS 190520Z 34021G30KT 03/M03 A3001 RMK A01 T00261027  RH  069%=      5-min Rain = 0
KSLS 190525Z 34020G32KT 02/M02 A3001 RMK A01 T00231022  RH  073%=      5-min Rain = 0
KSLS 190530Z 34020G28KT 02/M02 A3002 RMK A01 T00231022  RH  073%=      5-min Rain = 0
KSLS 190535Z 34021G31KT 02/M02 A3002 RMK A01 T00231023  RH  072%=      5-min Rain = 0
KSLS 190540Z 34023G34KT 02/M02 A3002 RMK A01 T00231024  RH  072%=      5-min Rain = 0
KSLS 190545Z 34026G32KT 02/M02 A3002 RMK A01 T00221024  RH  072%=      5-min Rain = 0
KSLS 190550Z 34024G32KT 02/M02 A3003 RMK A01 T00211023  RH  074%=      5-min Rain = 0
KSLS 190555Z 34024G33KT 02/M02 A3003 RMK A01 T00201021  RH  075%=      5-min Rain = 0

Page generated in 0.0128 seconds.